Time;durP1;ratioP1;P1;durP2;ratioP2;P2;SDS_P1;SDS_P2;PMS_P1;PMS_P2;Temp;Humidity;BMP_temperature;BMP_pressure;BME280_temperature;BME280_humidity;BME280_pressure;Samples;Min_cycle;Max_cycle;Signal;HPM_P1;HPM_P2
2023/12/05 00:00:33;;;;;;;;;;;2.70;79.70;;;;;;4997514;28;87983;-47
2023/12/05 00:02:59;;;;;;;;;;;2.80;79.60;;;;;;4997211;28;87326;-48
2023/12/05 00:05:24;;;;;;;;;;;2.70;79.60;;;;;;5002743;28;87078;-47
2023/12/05 00:07:50;;;;;;;;;;;2.70;79.80;;;;;;5005390;28;90009;-48
2023/12/05 00:10:15;;;;;;;;;;;2.70;79.80;;;;;;5002443;28;87081;-46
2023/12/05 00:12:41;;;;;;;;;;;2.70;79.80;;;;;;4996227;28;86835;-46
2023/12/05 00:15:07;;;;;;;;;;;2.70;79.80;;;;;;4998986;28;88423;-48
2023/12/05 00:17:32;;;;;;;;;;;2.70;79.70;;;;;;4997269;28;86223;-47
2023/12/05 00:19:58;;;;;;;;;;;2.70;79.70;;;;;;4998118;28;87199;-47
2023/12/05 00:22:25;;;;;;;;;;;2.70;79.70;;;;;;4999410;28;87407;-47
2023/12/05 00:24:51;;;;;;;;;;;2.60;79.80;;;;;;4999826;28;87957;-46
2023/12/05 00:27:16;;;;;;;;;;;2.60;79.90;;;;;;4999470;28;87444;-47
2023/12/05 00:29:42;;;;;;;;;;;2.60;79.80;;;;;;4996579;28;86985;-46
2023/12/05 00:32:08;;;;;;;;;;;2.60;79.80;;;;;;4999292;28;87983;-47
2023/12/05 00:34:33;;;;;;;;;;;2.60;79.80;;;;;;4995479;28;87886;-46
2023/12/05 00:36:59;;;;;;;;;;;2.60;79.80;;;;;;4999110;28;86924;-46
2023/12/05 00:39:24;;;;;;;;;;;2.60;79.70;;;;;;4998497;28;87914;-46
2023/12/05 00:41:50;;;;;;;;;;;2.60;79.70;;;;;;4997994;28;86759;-47
2023/12/05 00:44:15;;;;;;;;;;;2.60;80.00;;;;;;4997173;28;87071;-48
2023/12/05 00:46:41;;;;;;;;;;;2.60;79.80;;;;;;5003109;28;86996;-46
2023/12/05 00:49:06;;;;;;;;;;;2.60;79.80;;;;;;4998646;28;87915;-47
2023/12/05 00:51:32;;;;;;;;;;;2.60;79.70;;;;;;4995694;28;88841;-47
2023/12/05 00:53:58;;;;;;;;;;;2.60;80.00;;;;;;4998544;28;88809;-46
2023/12/05 00:56:23;;;;;;;;;;;2.60;79.90;;;;;;4996601;28;87077;-46
2023/12/05 00:58:49;;;;;;;;;;;2.60;80.00;;;;;;5001495;28;86870;-47
2023/12/05 01:01:14;;;;;;;;;;;2.50;79.90;;;;;;4994805;28;88966;-46
2023/12/05 01:03:40;;;;;;;;;;;2.50;79.80;;;;;;4999415;28;87068;-46
2023/12/05 01:06:06;;;;;;;;;;;2.50;80.20;;;;;;4996586;28;86694;-46
2023/12/05 01:08:31;;;;;;;;;;;2.50;79.90;;;;;;4996922;28;87412;-46
2023/12/05 01:10:57;;;;;;;;;;;2.50;80.30;;;;;;4997299;28;87963;-46
2023/12/05 01:13:24;;;;;;;;;;;2.50;79.80;;;;;;4997836;28;88794;-46
2023/12/05 01:15:50;;;;;;;;;;;2.50;79.80;;;;;;4994153;28;86996;-46
2023/12/05 01:18:15;;;;;;;;;;;2.50;79.80;;;;;;4998410;28;86891;-45
2023/12/05 01:20:41;;;;;;;;;;;2.50;80.10;;;;;;4995133;28;87436;-46
2023/12/05 01:23:07;;;;;;;;;;;2.50;80.00;;;;;;4999968;28;87044;-46
2023/12/05 01:25:32;;;;;;;;;;;2.50;80.10;;;;;;4999349;28;86961;-46
2023/12/05 01:27:58;;;;;;;;;;;2.50;80.00;;;;;;4995803;28;87560;-46
2023/12/05 01:30:24;;;;;;;;;;;2.50;80.10;;;;;;4999576;28;86294;-47
2023/12/05 01:32:50;;;;;;;;;;;2.50;79.90;;;;;;4996576;28;87281;-46
2023/12/05 01:35:16;;;;;;;;;;;2.40;80.00;;;;;;4996585;28;86971;-45
2023/12/05 01:37:42;;;;;;;;;;;2.40;80.20;;;;;;5000514;28;88033;-46
2023/12/05 01:40:09;;;;;;;;;;;2.40;80.10;;;;;;4997967;28;87379;-47
2023/12/05 01:42:35;;;;;;;;;;;2.40;80.30;;;;;;4994758;28;87082;-47
2023/12/05 01:45:01;;;;;;;;;;;2.40;80.50;;;;;;4998562;28;86923;-46
2023/12/05 01:47:27;;;;;;;;;;;2.40;80.30;;;;;;4996777;28;88432;-47
2023/12/05 01:49:52;;;;;;;;;;;2.40;80.20;;;;;;4997887;28;86957;-47
2023/12/05 01:52:19;;;;;;;;;;;2.40;80.40;;;;;;5003986;28;86990;-47
2023/12/05 01:54:44;;;;;;;;;;;2.40;80.10;;;;;;4996501;28;86266;-46
2023/12/05 01:57:10;;;;;;;;;;;2.40;80.30;;;;;;4996533;28;87617;-47
2023/12/05 01:59:36;;;;;;;;;;;2.40;80.50;;;;;;4998213;28;88582;-47
2023/12/05 02:02:02;;;;;;;;;;;2.40;80.20;;;;;;5003082;28;87929;-47
2023/12/05 02:04:29;;;;;;;;;;;2.30;80.20;;;;;;5004873;28;89062;-46
2023/12/05 02:06:54;;;;;;;;;;;2.30;80.50;;;;;;5000985;28;87476;-47
2023/12/05 02:09:21;;;;;;;;;;;2.30;80.40;;;;;;5002109;28;86948;-46
2023/12/05 02:11:46;;;;;;;;;;;2.30;80.60;;;;;;5007077;28;86933;-47
2023/12/05 02:14:12;;;;;;;;;;;2.30;80.50;;;;;;5002170;28;87373;-46
2023/12/05 02:16:40;;;;;;;;;;;2.30;80.50;;;;;;5001608;28;87482;-47
2023/12/05 02:19:17;;;;;;;;;;;2.30;80.80;;;;;;4998801;28;86685;-49
2023/12/05 02:21:45;;;;;;;;;;;2.20;80.40;;;;;;4998606;28;86942;-46
2023/12/05 02:24:15;;;;;;;;;;;2.30;80.70;;;;;;4997254;28;86844;-47
2023/12/05 02:26:46;;;;;;;;;;;2.30;80.40;;;;;;4996941;28;89389;-47
2023/12/05 02:29:11;;;;;;;;;;;2.20;80.30;;;;;;5001147;28;86884;-48
2023/12/05 02:31:37;;;;;;;;;;;2.20;80.80;;;;;;4997148;28;87086;-47
2023/12/05 02:34:03;;;;;;;;;;;2.20;80.40;;;;;;4999648;28;88656;-47
2023/12/05 02:36:34;;;;;;;;;;;2.20;80.80;;;;;;4999251;28;86980;-46
2023/12/05 02:39:12;;;;;;;;;;;2.20;80.50;;;;;;5007701;28;88442;-48
2023/12/05 02:41:41;;;;;;;;;;;2.20;80.90;;;;;;4996991;28;86844;-46
2023/12/05 02:44:09;;;;;;;;;;;2.20;80.80;;;;;;5002184;28;86687;-46
2023/12/05 02:46:36;;;;;;;;;;;2.20;80.90;;;;;;4999931;28;87131;-46
2023/12/05 02:49:03;;;;;;;;;;;2.20;80.90;;;;;;5004222;28;86924;-47
2023/12/05 02:51:28;;;;;;;;;;;2.20;80.80;;;;;;4997451;28;87859;-46
2023/12/05 02:53:55;;;;;;;;;;;2.10;80.80;;;;;;4999972;28;88619;-47
2023/12/05 02:56:21;;;;;;;;;;;2.10;81.20;;;;;;5004481;28;87070;-47
2023/12/05 02:58:47;;;;;;;;;;;2.10;80.90;;;;;;4996262;28;87200;-47
2023/12/05 03:01:12;;;;;;;;;;;2.10;80.90;;;;;;5000452;28;87166;-46
2023/12/05 03:03:38;;;;;;;;;;;2.10;81.10;;;;;;4996521;28;86908;-46
2023/12/05 03:06:03;;;;;;;;;;;2.10;81.10;;;;;;5000641;28;86952;-47
2023/12/05 03:08:29;;;;;;;;;;;2.10;81.10;;;;;;5001223;28;86287;-47
2023/12/05 03:10:54;;;;;;;;;;;2.10;81.20;;;;;;5005059;28;88567;-47
2023/12/05 03:13:20;;;;;;;;;;;2.10;81.10;;;;;;4996278;28;87283;-47
2023/12/05 03:15:46;;;;;;;;;;;2.10;81.20;;;;;;4996896;28;88265;-47
2023/12/05 03:18:12;;;;;;;;;;;2.10;81.10;;;;;;5006076;28;87614;-46
2023/12/05 03:20:37;;;;;;;;;;;2.10;81.30;;;;;;4998183;28;87066;-48
2023/12/05 03:23:03;;;;;;;;;;;2.10;81.30;;;;;;4999978;28;88122;-47
2023/12/05 03:25:28;;;;;;;;;;;2.00;81.20;;;;;;4994542;28;87313;-47
2023/12/05 03:27:54;;;;;;;;;;;2.00;81.30;;;;;;5000972;28;86964;-47
2023/12/05 03:30:19;;;;;;;;;;;2.00;81.40;;;;;;5003543;28;87181;-46
2023/12/05 03:32:45;;;;;;;;;;;2.00;81.40;;;;;;5001005;28;86870;-46
2023/12/05 03:35:10;;;;;;;;;;;2.00;81.30;;;;;;5001194;28;86887;-47
2023/12/05 03:37:36;;;;;;;;;;;2.00;81.30;;;;;;5002056;28;86836;-46
2023/12/05 03:40:02;;;;;;;;;;;2.00;81.40;;;;;;4998136;28;88533;-46
2023/12/05 03:42:27;;;;;;;;;;;2.00;81.40;;;;;;4999793;28;87724;-47
2023/12/05 03:44:53;;;;;;;;;;;2.00;81.50;;;;;;4997413;28;87551;-46
2023/12/05 03:47:18;;;;;;;;;;;2.00;81.50;;;;;;4995828;28;87253;-46
2023/12/05 03:49:44;;;;;;;;;;;2.00;81.40;;;;;;4999196;28;87919;-47
2023/12/05 03:52:09;;;;;;;;;;;2.00;82.00;;;;;;4997217;28;87408;-47
2023/12/05 03:54:35;;;;;;;;;;;2.00;81.50;;;;;;4998633;28;87019;-46
2023/12/05 03:57:01;;;;;;;;;;;2.00;81.70;;;;;;5001318;28;87975;-48
2023/12/05 03:59:26;;;;;;;;;;;1.90;81.40;;;;;;5001300;28;88424;-47
2023/12/05 04:01:52;;;;;;;;;;;1.90;81.70;;;;;;5001877;28;87002;-48
2023/12/05 04:04:17;;;;;;;;;;;1.90;81.60;;;;;;4996296;28;88520;-46
2023/12/05 04:06:43;;;;;;;;;;;1.90;81.70;;;;;;4996431;28;87057;-46
2023/12/05 04:09:08;;;;;;;;;;;1.90;81.70;;;;;;4999757;28;86803;-48
2023/12/05 04:11:34;;;;;;;;;;;1.90;81.80;;;;;;4999511;28;86790;-48
2023/12/05 04:14:00;;;;;;;;;;;1.90;81.70;;;;;;4996518;28;87651;-46
2023/12/05 04:16:26;;;;;;;;;;;1.90;81.60;;;;;;4999002;28;86928;-47
2023/12/05 04:18:52;;;;;;;;;;;1.90;81.80;;;;;;5000988;28;88680;-48
2023/12/05 04:21:18;;;;;;;;;;;1.90;81.90;;;;;;5002138;28;86314;-46
2023/12/05 04:23:44;;;;;;;;;;;1.90;81.80;;;;;;4997944;28;88503;-47
2023/12/05 04:26:13;;;;;;;;;;;1.90;81.80;;;;;;5000129;28;86984;-47
2023/12/05 04:28:38;;;;;;;;;;;1.90;81.90;;;;;;5001322;28;88664;-47
2023/12/05 04:31:04;;;;;;;;;;;1.90;82.80;;;;;;4995340;28;87665;-46
2023/12/05 04:33:29;;;;;;;;;;;1.90;81.90;;;;;;4996082;28;86925;-46
2023/12/05 04:35:55;;;;;;;;;;;1.80;82.00;;;;;;5005624;28;86960;-46
2023/12/05 04:38:20;;;;;;;;;;;1.80;81.90;;;;;;4999450;28;87467;-46
2023/12/05 04:40:46;;;;;;;;;;;1.80;81.90;;;;;;4998403;28;86947;-46
2023/12/05 04:43:11;;;;;;;;;;;1.80;81.90;;;;;;5003610;28;87135;-47
2023/12/05 04:45:38;;;;;;;;;;;1.90;81.90;;;;;;4998663;28;86078;-46
2023/12/05 04:48:03;;;;;;;;;;;1.80;81.80;;;;;;4998808;28;87071;-47
2023/12/05 04:50:29;;;;;;;;;;;1.80;81.80;;;;;;4994985;28;87540;-47
2023/12/05 04:52:54;;;;;;;;;;;1.80;81.80;;;;;;4998516;28;88003;-46
2023/12/05 04:55:20;;;;;;;;;;;1.80;82.10;;;;;;4995630;28;87044;-49
2023/12/05 04:57:45;;;;;;;;;;;1.80;81.90;;;;;;4998734;28;87241;-48
2023/12/05 05:00:13;;;;;;;;;;;1.80;82.00;;;;;;4997321;28;87067;-47
2023/12/05 05:02:38;;;;;;;;;;;1.80;81.90;;;;;;4996817;28;87881;-46
2023/12/05 05:05:04;;;;;;;;;;;1.80;81.80;;;;;;4999307;28;87406;-46
2023/12/05 05:07:29;;;;;;;;;;;1.80;82.00;;;;;;4997594;28;87936;-46
2023/12/05 05:09:55;;;;;;;;;;;1.80;81.90;;;;;;4999589;28;86774;-48
2023/12/05 05:12:21;;;;;;;;;;;1.80;81.90;;;;;;4995644;28;87007;-47
2023/12/05 05:14:46;;;;;;;;;;;1.80;82.10;;;;;;5001203;28;86849;-46
2023/12/05 05:17:12;;;;;;;;;;;1.80;82.10;;;;;;4995399;28;88347;-47
2023/12/05 05:19:37;;;;;;;;;;;1.80;82.00;;;;;;5001485;28;87053;-46
2023/12/05 05:22:03;;;;;;;;;;;1.80;82.20;;;;;;4997782;28;87839;-46
2023/12/05 05:24:29;;;;;;;;;;;1.80;82.20;;;;;;4996192;28;86946;-46
2023/12/05 05:26:55;;;;;;;;;;;1.80;82.20;;;;;;4999765;28;87024;-47
2023/12/05 05:29:20;;;;;;;;;;;1.80;82.30;;;;;;4996935;28;88521;-47
2023/12/05 05:31:46;;;;;;;;;;;1.80;82.40;;;;;;4998657;28;87073;-47
2023/12/05 05:34:12;;;;;;;;;;;1.80;82.30;;;;;;5002563;28;86615;-46
2023/12/05 05:36:38;;;;;;;;;;;1.80;82.50;;;;;;4998072;28;89106;-48
2023/12/05 05:39:03;;;;;;;;;;;1.70;82.30;;;;;;4994703;28;87027;-46
2023/12/05 05:41:29;;;;;;;;;;;1.70;82.30;;;;;;4998693;28;88062;-46
2023/12/05 05:43:54;;;;;;;;;;;1.70;82.40;;;;;;4994567;28;87560;-47
2023/12/05 05:46:20;;;;;;;;;;;1.70;82.40;;;;;;4993513;28;87124;-47
2023/12/05 05:48:45;;;;;;;;;;;1.70;82.50;;;;;;4997875;28;87165;-47
2023/12/05 05:51:11;;;;;;;;;;;1.70;82.40;;;;;;5000353;28;87087;-47
2023/12/05 05:53:36;;;;;;;;;;;1.70;82.30;;;;;;4999530;28;87580;-48
2023/12/05 05:56:02;;;;;;;;;;;1.70;82.60;;;;;;4999074;28;87527;-47
2023/12/05 05:58:28;;;;;;;;;;;1.70;82.40;;;;;;4997079;28;86395;-46
2023/12/05 06:00:53;;;;;;;;;;;1.70;82.60;;;;;;4998396;28;86850;-47
2023/12/05 06:03:19;;;;;;;;;;;1.70;82.40;;;;;;5001213;28;87011;-47
2023/12/05 06:05:44;;;;;;;;;;;1.70;82.40;;;;;;4994084;28;87985;-47
2023/12/05 06:08:10;;;;;;;;;;;1.70;82.60;;;;;;4998912;28;87648;-47
2023/12/05 06:10:36;;;;;;;;;;;1.70;82.50;;;;;;5001245;28;86939;-46
2023/12/05 06:13:01;;;;;;;;;;;1.70;82.70;;;;;;4996364;28;87915;-47
2023/12/05 06:15:27;;;;;;;;;;;1.70;82.70;;;;;;4991316;28;88228;-48
2023/12/05 06:17:53;;;;;;;;;;;1.70;82.70;;;;;;5004563;28;87108;-46
2023/12/05 06:20:18;;;;;;;;;;;1.70;82.60;;;;;;5002762;28;86964;-48
2023/12/05 06:22:44;;;;;;;;;;;1.70;82.70;;;;;;4991048;28;86743;-47
2023/12/05 06:25:09;;;;;;;;;;;1.70;82.90;;;;;;4998053;28;87151;-48
2023/12/05 06:27:35;;;;;;;;;;;1.70;82.70;;;;;;4999993;28;87781;-47
2023/12/05 06:30:00;;;;;;;;;;;1.70;82.80;;;;;;4999622;28;88478;-47
2023/12/05 06:32:26;;;;;;;;;;;1.70;82.70;;;;;;4996579;28;87406;-46
2023/12/05 06:34:51;;;;;;;;;;;1.70;82.70;;;;;;4997666;28;87578;-47
2023/12/05 06:37:17;;;;;;;;;;;1.60;82.60;;;;;;4997233;28;86917;-47
2023/12/05 06:39:43;;;;;;;;;;;1.60;82.90;;;;;;4996579;28;87958;-47
2023/12/05 06:42:08;;;;;;;;;;;1.70;82.70;;;;;;4990894;28;87504;-47
2023/12/05 06:44:34;;;;;;;;;;;1.70;82.80;;;;;;4992966;28;88603;-47
2023/12/05 06:47:00;;;;;;;;;;;1.70;82.70;;;;;;4999042;28;86657;-47
2023/12/05 06:49:25;;;;;;;;;;;1.60;82.90;;;;;;4997868;28;88556;-47
2023/12/05 06:51:56;;;;;;;;;;;1.70;82.80;;;;;;5002880;28;87194;-47
2023/12/05 06:54:22;;;;;;;;;;;1.70;83.20;;;;;;4993705;28;89504;-47
2023/12/05 06:56:48;;;;;;;;;;;1.70;82.90;;;;;;4996949;28;86908;-47
2023/12/05 06:59:14;;;;;;;;;;;1.70;82.50;;;;;;4999597;28;87111;-48
2023/12/05 07:01:40;;;;;;;;;;;1.70;83.00;;;;;;4999842;28;88542;-47
2023/12/05 07:04:08;;;;;;;;;;;1.70;82.80;;;;;;5007463;28;87846;-48
2023/12/05 07:06:33;;;;;;;;;;;1.70;82.70;;;;;;5000710;28;87131;-47
2023/12/05 07:08:59;;;;;;;;;;;1.70;83.00;;;;;;4997180;28;88556;-47
2023/12/05 07:11:25;;;;;;;;;;;1.70;82.70;;;;;;4997701;28;86312;-47
2023/12/05 07:13:52;;;;;;;;;;;1.70;83.00;;;;;;5005273;28;88161;-47
2023/12/05 07:16:18;;;;;;;;;;;1.70;82.90;;;;;;5002270;28;86966;-47
2023/12/05 07:18:43;;;;;;;;;;;1.70;82.80;;;;;;4997582;28;89619;-46
2023/12/05 07:21:09;;;;;;;;;;;1.70;83.00;;;;;;5002221;28;87580;-46
2023/12/05 07:23:35;;;;;;;;;;;1.80;83.00;;;;;;5000685;28;87072;-47
2023/12/05 07:26:01;;;;;;;;;;;1.80;82.50;;;;;;4997287;28;88007;-47
2023/12/05 07:28:27;;;;;;;;;;;1.80;82.30;;;;;;4998590;28;87865;-47
2023/12/05 07:30:52;;;;;;;;;;;1.70;82.60;;;;;;4997544;28;87156;-47
2023/12/05 07:33:18;;;;;;;;;;;1.80;82.60;;;;;;4997411;28;87347;-47
2023/12/05 07:35:43;;;;;;;;;;;1.80;82.80;;;;;;4999688;28;86833;-47
2023/12/05 07:38:09;;;;;;;;;;;1.80;82.70;;;;;;5002469;28;87143;-47
2023/12/05 07:40:34;;;;;;;;;;;1.80;82.20;;;;;;4995499;28;87378;-47
2023/12/05 07:43:00;;;;;;;;;;;1.80;82.70;;;;;;4996625;28;88225;-48
2023/12/05 07:45:25;;;;;;;;;;;1.80;82.10;;;;;;5000202;28;87899;-47
2023/12/05 07:47:51;;;;;;;;;;;1.80;82.50;;;;;;4997128;28;87044;-47
2023/12/05 07:50:16;;;;;;;;;;;1.80;82.20;;;;;;4999635;28;87345;-48
2023/12/05 07:52:42;;;;;;;;;;;1.80;82.20;;;;;;5002604;28;87118;-48
2023/12/05 07:55:08;;;;;;;;;;;1.80;82.50;;;;;;4995098;28;88588;-46
2023/12/05 07:57:33;;;;;;;;;;;1.80;82.30;;;;;;5003530;28;87202;-47
2023/12/05 07:59:59;;;;;;;;;;;1.80;82.40;;;;;;4993203;28;86672;-47
2023/12/05 08:02:25;;;;;;;;;;;1.80;82.50;;;;;;5000881;28;87000;-46
2023/12/05 08:04:50;;;;;;;;;;;1.80;82.60;;;;;;4994405;28;87662;-47
2023/12/05 08:07:17;;;;;;;;;;;1.80;82.50;;;;;;4993909;28;88404;-47
2023/12/05 08:09:42;;;;;;;;;;;1.80;82.20;;;;;;4995664;28;87378;-47
2023/12/05 08:12:08;;;;;;;;;;;1.80;82.40;;;;;;5002306;28;86967;-47
2023/12/05 08:14:33;;;;;;;;;;;1.80;82.30;;;;;;4994783;28;88539;-48
2023/12/05 08:16:59;;;;;;;;;;;1.90;82.40;;;;;;4996732;28;87228;-46
2023/12/05 08:19:25;;;;;;;;;;;1.90;82.20;;;;;;5001979;28;87001;-47
2023/12/05 08:21:51;;;;;;;;;;;1.90;82.50;;;;;;4998728;28;87094;-48
2023/12/05 08:24:17;;;;;;;;;;;1.90;82.40;;;;;;4998386;28;87947;-46
2023/12/05 08:26:43;;;;;;;;;;;1.80;82.30;;;;;;5000422;28;86968;-47
2023/12/05 08:29:09;;;;;;;;;;;1.80;82.30;;;;;;4998688;28;87083;-47
2023/12/05 08:31:34;;;;;;;;;;;1.80;82.40;;;;;;4997878;28;88045;-48
2023/12/05 08:34:00;;;;;;;;;;;1.90;82.30;;;;;;4997489;28;88450;-47
2023/12/05 08:36:26;;;;;;;;;;;1.90;82.50;;;;;;4994295;28;87277;-47
2023/12/05 08:38:51;;;;;;;;;;;1.90;82.20;;;;;;5001176;28;86995;-48
2023/12/05 08:41:18;;;;;;;;;;;1.90;82.30;;;;;;4993579;28;88703;-46
2023/12/05 08:43:44;;;;;;;;;;;1.90;82.40;;;;;;4997365;28;87915;-47
2023/12/05 08:46:09;;;;;;;;;;;1.90;82.40;;;;;;5003629;28;87472;-48
2023/12/05 08:48:35;;;;;;;;;;;1.90;82.30;;;;;;4999827;28;86410;-48
2023/12/05 08:51:00;;;;;;;;;;;1.90;82.00;;;;;;5001471;28;87428;-46
2023/12/05 08:53:26;;;;;;;;;;;1.90;82.40;;;;;;4996471;28;87640;-47
2023/12/05 08:55:51;;;;;;;;;;;1.90;82.40;;;;;;4991966;28;88064;-47
2023/12/05 08:58:17;;;;;;;;;;;1.90;82.60;;;;;;4999278;28;87682;-48
2023/12/05 09:00:42;;;;;;;;;;;1.90;82.60;;;;;;5000899;28;87444;-46
2023/12/05 09:03:08;;;;;;;;;;;1.90;82.40;;;;;;4992076;28;87899;-47
2023/12/05 09:05:35;;;;;;;;;;;1.90;82.30;;;;;;4998453;28;87565;-47
2023/12/05 09:08:00;;;;;;;;;;;2.00;82.50;;;;;;4995819;28;86889;-47
2023/12/05 09:10:26;;;;;;;;;;;1.90;82.40;;;;;;4997405;28;88009;-46
2023/12/05 09:12:51;;;;;;;;;;;1.90;82.60;;;;;;4996389;28;88049;-46
2023/12/05 09:15:17;;;;;;;;;;;1.90;82.00;;;;;;4998009;28;88196;-47
2023/12/05 09:17:43;;;;;;;;;;;1.90;82.30;;;;;;4998988;28;86947;-46
2023/12/05 09:20:09;;;;;;;;;;;1.90;83.30;;;;;;4998079;28;89572;-47
2023/12/05 09:22:35;;;;;;;;;;;2.00;82.40;;;;;;4996980;28;87028;-47
2023/12/05 09:25:02;;;;;;;;;;;1.90;82.20;;;;;;4997989;28;88479;-47
2023/12/05 09:27:28;;;;;;;;;;;2.00;82.40;;;;;;5003269;28;87034;-48
2023/12/05 09:29:53;;;;;;;;;;;2.00;82.60;;;;;;4998106;28;88382;-46
2023/12/05 09:32:19;;;;;;;;;;;1.90;82.20;;;;;;5000329;28;87369;-46
2023/12/05 09:34:45;;;;;;;;;;;1.90;82.70;;;;;;4995235;28;87315;-47
2023/12/05 09:37:10;;;;;;;;;;;1.90;82.50;;;;;;4996867;28;86515;-46
2023/12/05 09:39:36;;;;;;;;;;;1.90;83.00;;;;;;4994198;28;87132;-46
2023/12/05 09:42:03;;;;;;;;;;;2.00;83.10;;;;;;4991910;28;87220;-47
2023/12/05 09:44:31;;;;;;;;;;;2.00;82.60;;;;;;4998882;28;87947;-46
2023/12/05 09:46:57;;;;;;;;;;;2.00;83.10;;;;;;4999471;28;87014;-45
2023/12/05 09:49:27;;;;;;;;;;;2.00;82.60;;;;;;4992993;28;87139;-47
2023/12/05 09:51:56;;;;;;;;;;;2.00;82.80;;;;;;4993510;28;87471;-46
2023/12/05 09:54:24;;;;;;;;;;;2.00;82.40;;;;;;4995412;28;86936;-47
2023/12/05 09:56:50;;;;;;;;;;;2.00;83.10;;;;;;4996719;28;88116;-46
2023/12/05 09:59:17;;;;;;;;;;;2.00;82.90;;;;;;4997824;28;87468;-45
2023/12/05 10:01:43;;;;;;;;;;;1.90;82.60;;;;;;4995242;28;86334;-46
2023/12/05 10:04:10;;;;;;;;;;;2.00;82.80;;;;;;4993916;28;87050;-47
2023/12/05 10:06:37;;;;;;;;;;;1.90;82.80;;;;;;4999766;28;87000;-45
2023/12/05 10:09:06;;;;;;;;;;;2.00;82.80;;;;;;4998849;28;87939;-46
2023/12/05 10:11:33;;;;;;;;;;;2.00;82.90;;;;;;4995042;28;87490;-46
2023/12/05 10:13:58;;;;;;;;;;;2.00;83.00;;;;;;4998360;28;86976;-45
2023/12/05 10:16:24;;;;;;;;;;;2.00;82.80;;;;;;4998223;28;86982;-45
2023/12/05 10:18:50;;;;;;;;;;;2.00;82.90;;;;;;4995985;28;87517;-45
2023/12/05 10:21:16;;;;;;;;;;;2.00;82.80;;;;;;5000694;28;88484;-45
2023/12/05 10:23:42;;;;;;;;;;;2.00;83.00;;;;;;4997742;28;86892;-45
2023/12/05 10:26:07;;;;;;;;;;;2.00;82.80;;;;;;5001222;28;86246;-45
2023/12/05 10:28:47;;;;;;;;;;;2.00;83.30;;;;;;5004856;28;86851;-45
2023/12/05 10:31:13;;;;;;;;;;;2.00;83.20;;;;;;4999466;28;87402;-45
2023/12/05 10:33:39;;;;;;;;;;;2.00;83.00;;;;;;5000785;28;87976;-45
2023/12/05 10:36:09;;;;;;;;;;;2.00;83.20;;;;;;5005869;28;90527;-46
2023/12/05 10:38:35;;;;;;;;;;;2.00;83.10;;;;;;5002596;28;87024;-45
2023/12/05 10:41:00;;;;;;;;;;;2.10;83.50;;;;;;4998090;28;88405;-45
2023/12/05 10:43:26;;;;;;;;;;;2.00;83.20;;;;;;5003615;28;87378;-46
2023/12/05 10:45:53;;;;;;;;;;;2.00;83.20;;;;;;4998945;28;87592;-46
2023/12/05 10:48:18;;;;;;;;;;;2.00;83.30;;;;;;5004802;28;87123;-45
2023/12/05 10:50:46;;;;;;;;;;;2.00;83.30;;;;;;4995101;28;88319;-46
2023/12/05 10:53:12;;;;;;;;;;;2.00;83.50;;;;;;4997505;28;87192;-45
2023/12/05 10:55:38;;;;;;;;;;;2.00;83.60;;;;;;5000733;28;88282;-46
2023/12/05 10:58:04;;;;;;;;;;;2.00;83.80;;;;;;4995845;28;88131;-45
2023/12/05 11:00:30;;;;;;;;;;;2.00;83.60;;;;;;4992096;28;86945;-47
2023/12/05 11:02:56;;;;;;;;;;;2.00;83.70;;;;;;4996751;28;86972;-47
2023/12/05 11:05:22;;;;;;;;;;;2.00;83.90;;;;;;4996145;28;88485;-45
2023/12/05 11:07:47;;;;;;;;;;;2.00;83.80;;;;;;5000958;28;87076;-46
2023/12/05 11:10:13;;;;;;;;;;;2.00;83.80;;;;;;4995663;28;87377;-47
2023/12/05 11:12:39;;;;;;;;;;;2.00;84.00;;;;;;5003097;28;88586;-45
2023/12/05 11:15:07;;;;;;;;;;;2.00;83.90;;;;;;4998291;28;86933;-45
2023/12/05 11:17:38;;;;;;;;;;;2.00;83.90;;;;;;4997980;28;87362;-46
2023/12/05 11:20:21;;;;;;;;;;;2.10;84.00;;;;;;5000916;28;87641;-47
2023/12/05 11:22:56;;;;;;;;;;;2.00;83.80;;;;;;4998070;28;87899;-46
2023/12/05 11:25:40;;;;;;;;;;;2.10;84.20;;;;;;4996215;28;87682;-45
2023/12/05 11:28:08;;;;;;;;;;;2.00;84.20;;;;;;4999007;28;87807;-46
2023/12/05 11:30:37;;;;;;;;;;;2.00;84.90;;;;;;5001770;28;86981;-46
2023/12/05 11:33:23;;;;;;;;;;;2.00;84.30;;;;;;5004015;28;87592;-49
2023/12/05 11:35:57;;;;;;;;;;;2.10;84.70;;;;;;4971556;28;87054;-46
2023/12/05 11:38:23;;;;;;;;;;;2.10;84.20;;;;;;4994484;28;87507;-46
2023/12/05 11:41:07;;;;;;;;;;;2.10;84.30;;;;;;4997115;28;86187;-46
2023/12/05 11:43:33;;;;;;;;;;;2.10;84.20;;;;;;5001125;28;86944;-46
2023/12/05 11:45:58;;;;;;;;;;;2.10;84.40;;;;;;4996680;28;87545;-46
2023/12/05 11:48:25;;;;;;;;;;;2.10;84.40;;;;;;4998405;28;88010;-46
2023/12/05 11:50:50;;;;;;;;;;;2.10;84.60;;;;;;4997696;28;88854;-46
2023/12/05 11:53:18;;;;;;;;;;;2.10;84.50;;;;;;4997759;28;88416;-47
2023/12/05 11:55:47;;;;;;;;;;;2.10;84.50;;;;;;5001976;28;87719;-47
2023/12/05 11:58:24;;;;;;;;;;;2.10;84.70;;;;;;4999096;28;88494;-46
2023/12/05 12:00:50;;;;;;;;;;;2.10;84.80;;;;;;4997795;28;87031;-46
2023/12/05 12:03:15;;;;;;;;;;;2.10;84.90;;;;;;4998211;28;86899;-45
2023/12/05 12:05:41;;;;;;;;;;;2.10;85.00;;;;;;4998757;28;86649;-46
2023/12/05 12:08:06;;;;;;;;;;;2.10;85.10;;;;;;4997306;28;87001;-45
2023/12/05 12:10:32;;;;;;;;;;;2.20;85.20;;;;;;4999132;28;87069;-46
2023/12/05 12:12:58;;;;;;;;;;;2.10;85.00;;;;;;4995467;28;89786;-45
2023/12/05 12:15:24;;;;;;;;;;;2.10;84.70;;;;;;4995166;28;87633;-46
2023/12/05 12:17:50;;;;;;;;;;;2.10;85.70;;;;;;4994828;28;87974;-46
2023/12/05 12:20:17;;;;;;;;;;;2.00;85.60;;;;;;4996603;28;87019;-46
2023/12/05 12:22:45;;;;;;;;;;;2.10;85.60;;;;;;4998714;28;87160;-46
2023/12/05 12:25:14;;;;;;;;;;;2.10;85.80;;;;;;4994389;28;87495;-46
2023/12/05 12:27:40;;;;;;;;;;;2.10;85.50;;;;;;4992962;28;87363;-46
2023/12/05 12:30:13;;;;;;;;;;;2.10;85.40;;;;;;4999308;28;87863;-47
2023/12/05 12:32:51;;;;;;;;;;;2.10;85.30;;;;;;4994707;28;87459;-46
2023/12/05 12:35:17;;;;;;;;;;;2.10;85.70;;;;;;4997903;28;87359;-45
2023/12/05 12:37:43;;;;;;;;;;;2.10;85.90;;;;;;5001680;28;87816;-45
2023/12/05 12:40:10;;;;;;;;;;;2.10;85.70;;;;;;4999046;28;87063;-46
2023/12/05 12:42:35;;;;;;;;;;;2.10;86.10;;;;;;4991925;28;88033;-47
2023/12/05 12:45:01;;;;;;;;;;;2.10;85.80;;;;;;4999415;28;87004;-47
2023/12/05 12:47:26;;;;;;;;;;;2.10;86.10;;;;;;4996560;28;87055;-45
2023/12/05 12:49:53;;;;;;;;;;;2.10;86.00;;;;;;5003196;28;87904;-46
2023/12/05 12:52:18;;;;;;;;;;;2.10;86.30;;;;;;4994722;28;88539;-45
2023/12/05 12:54:44;;;;;;;;;;;2.10;86.10;;;;;;4993626;28;86309;-47
2023/12/05 12:57:10;;;;;;;;;;;2.10;86.50;;;;;;4995953;28;87156;-46
2023/12/05 12:59:36;;;;;;;;;;;2.10;86.50;;;;;;5000283;28;87756;-46
2023/12/05 13:02:04;;;;;;;;;;;2.10;86.50;;;;;;4995069;28;88542;-46
2023/12/05 13:04:33;;;;;;;;;;;2.10;86.30;;;;;;4998854;28;87427;-45
2023/12/05 13:06:59;;;;;;;;;;;2.10;86.30;;;;;;4994208;28;86972;-46
2023/12/05 13:09:25;;;;;;;;;;;2.10;86.20;;;;;;4996029;28;87928;-46
2023/12/05 13:11:51;;;;;;;;;;;2.10;86.50;;;;;;4998186;28;88952;-45
2023/12/05 13:14:19;;;;;;;;;;;2.10;86.50;;;;;;4999248;28;86893;-46
2023/12/05 13:16:45;;;;;;;;;;;2.10;86.60;;;;;;4998237;28;87878;-47
2023/12/05 13:19:27;;;;;;;;;;;2.10;86.50;;;;;;4994813;28;86305;-46
2023/12/05 13:21:52;;;;;;;;;;;2.10;86.60;;;;;;4999343;28;87080;-46
2023/12/05 13:24:19;;;;;;;;;;;2.10;86.40;;;;;;4995099;28;87655;-46
2023/12/05 13:26:45;;;;;;;;;;;2.10;86.60;;;;;;4998494;28;87977;-45
2023/12/05 13:29:12;;;;;;;;;;;2.10;86.80;;;;;;4992693;28;88916;-46
2023/12/05 13:31:37;;;;;;;;;;;2.20;86.70;;;;;;4996690;28;87648;-47
2023/12/05 13:34:03;;;;;;;;;;;2.20;86.80;;;;;;4998489;28;87014;-46
2023/12/05 13:36:28;;;;;;;;;;;2.10;86.80;;;;;;4995389;28;86961;-47
2023/12/05 13:38:55;;;;;;;;;;;2.10;86.80;;;;;;4995104;28;88653;-46
2023/12/05 13:41:20;;;;;;;;;;;2.20;87.20;;;;;;4994741;28;87128;-46
2023/12/05 13:43:46;;;;;;;;;;;2.20;86.80;;;;;;5001428;28;87885;-46
2023/12/05 13:46:14;;;;;;;;;;;2.20;86.90;;;;;;4993823;28;88062;-46
2023/12/05 13:48:46;;;;;;;;;;;2.20;86.80;;;;;;4998446;28;88079;-47
2023/12/05 13:51:11;;;;;;;;;;;2.20;86.90;;;;;;4994725;28;89325;-46
2023/12/05 13:53:37;;;;;;;;;;;2.30;87.10;;;;;;5000774;28;86971;-46
2023/12/05 13:56:03;;;;;;;;;;;2.20;86.80;;;;;;4992981;28;87229;-46
2023/12/05 13:58:29;;;;;;;;;;;2.20;86.90;;;;;;4995944;28;88656;-46
2023/12/05 14:00:55;;;;;;;;;;;2.30;86.60;;;;;;4997655;28;87066;-47
2023/12/05 14:03:21;;;;;;;;;;;2.20;87.20;;;;;;5002713;28;86895;-47
2023/12/05 14:05:46;;;;;;;;;;;2.20;86.70;;;;;;5001402;28;87410;-46
2023/12/05 14:08:12;;;;;;;;;;;2.20;86.70;;;;;;4994551;28;87842;-47
2023/12/05 14:10:37;;;;;;;;;;;2.30;86.90;;;;;;4998156;28;87446;-46
2023/12/05 14:13:03;;;;;;;;;;;2.30;87.20;;;;;;5001095;28;87983;-46
2023/12/05 14:15:29;;;;;;;;;;;2.30;86.90;;;;;;4997623;28;87894;-45
2023/12/05 14:17:55;;;;;;;;;;;2.30;87.10;;;;;;5001705;28;86960;-46
2023/12/05 14:20:20;;;;;;;;;;;2.30;86.80;;;;;;5000247;28;87269;-46
2023/12/05 14:22:46;;;;;;;;;;;2.30;86.70;;;;;;4997706;28;87691;-47
2023/12/05 14:25:12;;;;;;;;;;;2.30;86.80;;;;;;4999516;28;88129;-46